Time;durP1;ratioP1;P1;durP2;ratioP2;P2;SDS_P1;SDS_P2;PMS_P1;PMS_P2;Temp;Humidity;BMP_temperature;BMP_pressure;BME280_temperature;BME280_humidity;BME280_pressure;Samples;Min_cycle;Max_cycle;Signal;HPM_P1;HPM_P2
2023/01/24 00:00:09;;;;;;;14.50;6.28;;;5.10;84.60;;;;;;5075536;28;20024;-75
2023/01/24 00:02:35;;;;;;;15.55;6.40;;;5.00;84.40;;;;;;5075430;28;20025;-74
2023/01/24 00:05:01;;;;;;;15.38;7.00;;;5.00;84.20;;;;;;5075486;28;20029;-74
2023/01/24 00:07:26;;;;;;;13.95;6.43;;;5.00;84.60;;;;;;5058691;28;20032;-74
2023/01/24 00:09:52;;;;;;;13.88;6.00;;;5.00;84.40;;;;;;5075251;28;20032;-74
2023/01/24 00:12:17;;;;;;;13.43;5.80;;;5.00;84.50;;;;;;5058765;28;20025;-74
2023/01/24 00:14:43;;;;;;;14.07;5.78;;;5.00;84.50;;;;;;5042117;28;20044;-74
2023/01/24 00:17:09;;;;;;;13.20;5.53;;;5.00;84.50;;;;;;5075331;28;20033;-74
2023/01/24 00:19:35;;;;;;;14.13;6.55;;;5.00;84.80;;;;;;5058646;28;21068;-75
2023/01/24 00:22:02;;;;;;;13.40;6.00;;;5.00;84.60;;;;;;5075363;28;20078;-74
2023/01/24 00:24:28;;;;;;;14.70;5.45;;;5.00;84.90;;;;;;5093414;28;20017;-74
2023/01/24 00:26:54;;;;;;;13.63;5.80;;;5.00;84.60;;;;;;5079048;28;20564;-74
2023/01/24 00:29:19;;;;;;;13.30;6.03;;;5.00;84.50;;;;;;5096792;28;20031;-74
2023/01/24 00:31:45;;;;;;;15.93;5.88;;;5.00;84.50;;;;;;5062138;28;20097;-74
2023/01/24 00:34:11;;;;;;;13.70;5.97;;;5.10;84.70;;;;;;5096810;28;20103;-74
2023/01/24 00:36:36;;;;;;;13.65;5.95;;;5.10;84.70;;;;;;5062196;28;20063;-74
2023/01/24 00:39:02;;;;;;;14.90;6.50;;;5.10;84.40;;;;;;5096563;28;20028;-74
2023/01/24 00:41:28;;;;;;;13.93;6.20;;;5.10;84.60;;;;;;5078774;28;20032;-74
2023/01/24 00:43:53;;;;;;;15.27;6.68;;;5.10;84.70;;;;;;5062190;28;20088;-74
2023/01/24 00:46:19;;;;;;;14.07;6.05;;;5.10;84.10;;;;;;5062104;28;20029;-74
2023/01/24 00:48:44;;;;;;;14.45;6.07;;;5.00;84.30;;;;;;5096408;28;20036;-74
2023/01/24 00:51:10;;;;;;;13.30;5.90;;;5.10;84.40;;;;;;5078723;28;20067;-74
2023/01/24 00:53:36;;;;;;;12.95;5.60;;;5.10;84.10;;;;;;5078791;28;20028;-74
2023/01/24 00:56:02;;;;;;;11.30;5.07;;;5.10;83.90;;;;;;5078578;28;20037;-74
2023/01/24 00:58:27;;;;;;;13.88;5.57;;;5.00;84.30;;;;;;5078680;28;20035;-74
2023/01/24 01:01:00;;;;;;;12.35;5.80;;;5.00;84.20;;;;;;5045293;28;20024;-74
2023/01/24 01:03:25;;;;;;;15.35;6.10;;;5.00;84.00;;;;;;5078382;28;20017;-74
2023/01/24 01:06:04;;;;;;;14.82;6.38;;;5.00;83.90;;;;;;5078395;28;20039;-74
2023/01/24 01:08:29;;;;;;;14.23;5.57;;;5.00;83.90;;;;;;5096131;28;20020;-74
2023/01/24 01:10:55;;;;;;;13.48;5.55;;;5.00;84.30;;;;;;5078279;28;20059;-74
2023/01/24 01:13:21;;;;;;;16.80;6.55;;;5.00;84.50;;;;;;5061748;28;20036;-74
2023/01/24 01:15:46;;;;;;;12.80;6.53;;;4.90;84.30;;;;;;5061603;28;20032;-74
2023/01/24 01:18:12;;;;;;;16.48;6.82;;;4.90;84.60;;;;;;5061464;28;20024;-74
2023/01/24 01:20:38;;;;;;;15.35;7.30;;;5.00;84.50;;;;;;5061457;28;20021;-74
2023/01/24 01:23:04;;;;;;;15.50;6.78;;;5.00;84.60;;;;;;5061411;28;20024;-75
2023/01/24 01:25:29;;;;;;;15.93;6.72;;;5.00;84.80;;;;;;5095755;28;20028;-74
2023/01/24 01:27:55;;;;;;;14.73;6.72;;;5.00;84.70;;;;;;5095698;28;20017;-74
2023/01/24 01:30:21;;;;;;;21.10;7.55;;;5.00;85.10;;;;;;5077496;28;20116;-75
2023/01/24 01:32:47;;;;;;;15.43;6.55;;;4.90;85.00;;;;;;5077882;28;20024;-74
2023/01/24 01:35:13;;;;;;;18.73;7.55;;;4.90;84.70;;;;;;5061312;28;20090;-74
2023/01/24 01:37:38;;;;;;;14.88;7.18;;;4.90;84.70;;;;;;5059791;28;20029;-74
2023/01/24 01:40:05;;;;;;;14.30;7.22;;;4.90;85.00;;;;;;5061256;28;20059;-74
2023/01/24 01:43:00;;;;;;;15.43;6.93;;;4.90;85.10;;;;;;5061035;28;20043;-74
2023/01/24 01:45:44;;;;;;;14.05;7.05;;;4.90;85.30;;;;;;5056728;28;20041;-74
2023/01/24 01:48:43;;;;;;;14.25;6.63;;;5.00;85.30;;;;;;5095361;28;20021;-74
2023/01/24 01:51:24;;;;;;;16.02;7.40;;;4.90;84.90;;;;;;5095306;28;20032;-74
2023/01/24 01:54:07;;;;;;;17.45;7.03;;;4.90;85.10;;;;;;5077463;28;20017;-74
2023/01/24 01:56:37;;;;;;;15.77;6.43;;;4.90;85.20;;;;;;5077306;28;20024;-74
2023/01/24 01:59:16;;;;;;;14.23;6.10;;;4.90;85.50;;;;;;5077449;28;20032;-74
2023/01/24 02:01:45;;;;;;;17.25;6.90;;;4.90;85.70;;;;;;5077462;28;20016;-74
2023/01/24 02:04:21;;;;;;;17.63;6.13;;;4.90;85.60;;;;;;5077255;28;20444;-74
2023/01/24 02:07:10;;;;;;;16.75;7.22;;;4.90;85.70;;;;;;5077289;28;20092;-75
2023/01/24 02:09:42;;;;;;;13.98;6.32;;;4.90;85.50;;;;;;5094879;28;20028;-74
2023/01/24 02:12:13;;;;;;;18.17;7.85;;;4.90;85.30;;;;;;5077083;28;20020;-74
2023/01/24 02:17:24;;;;;;;19.38;7.60;;;4.90;85.50;;;;;;5094752;28;20570;-74
2023/01/24 02:20:14;;;;;;;16.10;8.23;;;4.80;85.50;;;;;;5077154;28;20028;-75
2023/01/24 02:22:53;;;;;;;15.60;7.55;;;4.90;85.30;;;;;;5094648;28;20035;-75
2023/01/24 02:25:47;;;;;;;17.45;7.35;;;4.90;85.40;;;;;;5076925;28;20385;-74
2023/01/24 02:28:13;;;;;;;14.18;6.50;;;4.80;85.30;;;;;;5074174;28;20040;-74
2023/01/24 02:30:39;;;;;;;17.13;7.97;;;4.80;85.60;;;;;;5076672;28;20035;-74
2023/01/24 02:33:12;;;;;;;20.98;8.43;;;4.80;85.30;;;;;;5094614;28;20028;-74
2023/01/24 02:35:37;;;;;;;20.08;7.70;;;4.80;85.30;;;;;;5094255;28;20046;-75
2023/01/24 02:38:06;;;;;;;18.75;8.00;;;4.80;85.60;;;;;;5060115;28;20028;-74
2023/01/24 02:40:33;;;;;;;22.33;8.10;;;4.80;85.30;;;;;;5094255;28;20020;-74
2023/01/24 02:43:04;;;;;;;16.83;7.75;;;4.70;85.60;;;;;;5076520;28;20073;-74
2023/01/24 02:45:34;;;;;;;19.70;8.32;;;4.70;85.50;;;;;;5076473;28;20016;-74
2023/01/24 02:48:00;;;;;;;17.20;8.23;;;4.70;85.80;;;;;;5076142;28;20033;-74
2023/01/24 02:50:28;;;;;;;18.10;8.35;;;4.70;85.70;;;;;;5076399;28;20035;-74
2023/01/24 02:58:27;;;;;;;16.02;7.63;;;4.70;85.80;;;;;;5033654;28;20025;-74
2023/01/24 03:00:53;;;;;;;20.90;9.18;;;4.70;86.00;;;;;;5059498;28;20035;-74
2023/01/24 03:03:19;;;;;;;20.95;9.95;;;4.70;85.60;;;;;;5076255;28;20092;-74
2023/01/24 03:05:56;;;;;;;17.85;8.48;;;4.70;85.80;;;;;;5076008;28;20111;-74
2023/01/24 03:08:24;;;;;;;18.50;8.15;;;4.70;85.70;;;;;;5061062;28;20166;-74
2023/01/24 03:10:49;;;;;;;15.30;6.82;;;4.70;85.90;;;;;;5093715;28;20020;-74
2023/01/24 03:35:09;;;;;;;15.68;6.80;;;4.60;86.20;;;;;;5093679;28;20043;-74
2023/01/24 03:40:18;;;;;;;14.90;6.53;;;4.50;86.20;;;;;;5078455;28;20044;-74
2023/01/24 03:42:47;;;;;;;14.45;6.72;;;4.50;86.30;;;;;;5075865;28;20021;-74
2023/01/24 03:45:22;;;;;;;15.98;6.80;;;4.60;86.20;;;;;;5059343;28;20029;-74
2023/01/24 03:47:54;;;;;;;13.13;6.07;;;4.60;86.10;;;;;;5075500;28;20025;-74
2023/01/24 03:53:12;;;;;;;14.50;6.72;;;4.50;86.20;;;;;;5093478;28;20100;-74
2023/01/24 03:55:38;;;;;;;16.60;7.50;;;4.50;86.60;;;;;;5058774;28;20028;-74
2023/01/24 03:58:06;;;;;;;19.02;8.18;;;4.60;86.60;;;;;;5042314;28;20032;-74
2023/01/24 04:00:32;;;;;;;12.52;6.25;;;4.60;86.50;;;;;;5095332;28;20016;-74
2023/01/24 04:02:57;;;;;;;15.88;6.78;;;4.60;86.00;;;;;;5097352;28;20031;-74
2023/01/24 04:05:23;;;;;;;12.98;6.28;;;4.60;85.30;;;;;;5079516;28;20032;-74
2023/01/24 04:07:49;;;;;;;14.55;6.70;;;4.50;85.30;;;;;;5079493;28;20032;-74
2023/01/24 04:10:15;;;;;;;17.48;7.05;;;4.50;85.90;;;;;;5097202;28;20047;-74
2023/01/24 04:12:42;;;;;;;18.77;6.25;;;4.40;86.00;;;;;;5097056;28;20076;-74
2023/01/24 04:15:11;;;;;;;16.15;7.07;;;4.40;86.30;;;;;;5097111;28;20029;-74
2023/01/24 04:17:37;;;;;;;17.63;7.40;;;4.40;86.40;;;;;;5079817;28;20025;-74
2023/01/24 04:20:03;;;;;;;16.73;7.53;;;4.40;86.50;;;;;;5062717;28;20035;-74
2023/01/24 04:22:29;;;;;;;15.32;5.95;;;4.50;86.60;;;;;;5062552;28;20021;-74
2023/01/24 04:24:54;;;;;;;16.83;6.72;;;4.50;86.70;;;;;;5079189;28;20363;-74
2023/01/24 04:27:20;;;;;;;14.68;6.57;;;4.50;86.20;;;;;;5062590;28;20029;-74
2023/01/24 04:29:46;;;;;;;15.50;7.32;;;4.50;87.30;;;;;;5079132;28;20024;-74
2023/01/24 04:32:11;;;;;;;13.20;6.18;;;4.50;86.50;;;;;;5096588;28;20059;-74
2023/01/24 04:34:37;;;;;;;13.95;6.45;;;4.50;86.50;;;;;;5079120;28;20025;-74
2023/01/24 04:37:03;;;;;;;17.40;7.15;;;4.50;86.90;;;;;;5096582;28;20064;-74
2023/01/24 04:39:28;;;;;;;15.73;7.75;;;4.50;86.90;;;;;;5078815;28;20032;-74
2023/01/24 04:41:54;;;;;;;17.48;7.22;;;4.50;86.80;;;;;;5078880;28;20051;-74
2023/01/24 04:44:20;;;;;;;14.15;6.50;;;4.50;86.20;;;;;;5078804;28;20167;-74
2023/01/24 04:46:45;;;;;;;19.17;7.53;;;4.50;86.10;;;;;;5096498;28;20058;-74
2023/01/24 04:49:11;;;;;;;14.80;6.90;;;4.50;86.40;;;;;;5096424;28;20059;-74
2023/01/24 04:51:36;;;;;;;18.23;7.57;;;4.50;86.40;;;;;;5062034;28;20020;-75
2023/01/24 04:54:02;;;;;;;15.30;6.63;;;4.50;86.50;;;;;;5078539;28;20036;-74
2023/01/24 04:56:28;;;;;;;18.90;7.50;;;4.50;86.90;;;;;;5078617;28;20036;-74
2023/01/24 04:58:53;;;;;;;16.25;6.57;;;4.50;86.80;;;;;;5045348;28;20092;-75
2023/01/24 05:01:19;;;;;;;14.85;6.95;;;4.50;87.00;;;;;;5078459;28;20028;-75
2023/01/24 05:03:44;;;;;;;16.80;6.93;;;4.50;87.30;;;;;;5078428;28;20029;-74
2023/01/24 05:06:10;;;;;;;16.73;7.30;;;4.50;87.30;;;;;;5078583;28;20024;-74
2023/01/24 05:08:36;;;;;;;16.15;7.07;;;4.50;87.00;;;;;;5096010;28;20085;-74
2023/01/24 05:11:02;;;;;;;17.42;7.55;;;4.50;86.70;;;;;;5078027;28;20032;-74
2023/01/24 05:13:28;;;;;;;14.00;6.85;;;4.50;86.90;;;;;;5095960;28;20115;-74
2023/01/24 05:15:54;;;;;;;14.60;6.15;;;4.50;87.20;;;;;;5061606;28;20028;-74
2023/01/24 05:18:19;;;;;;;18.58;7.30;;;4.50;87.20;;;;;;5061512;28;20086;-74
2023/01/24 05:20:45;;;;;;;18.00;7.40;;;4.50;87.00;;;;;;5078108;28;20055;-74
2023/01/24 05:23:11;;;;;;;15.20;7.03;;;4.50;87.20;;;;;;5095796;28;20029;-75
2023/01/24 05:25:37;;;;;;;17.85;7.78;;;4.50;87.40;;;;;;5061385;28;20029;-74
2023/01/24 05:28:02;;;;;;;18.90;7.65;;;4.50;87.00;;;;;;5078190;28;20024;-74
2023/01/24 05:30:28;;;;;;;19.90;8.52;;;4.50;86.90;;;;;;5077799;28;20028;-75
2023/01/24 05:32:58;;;;;;;16.15;7.30;;;4.60;86.90;;;;;;5078043;28;20088;-74
2023/01/24 05:35:24;;;;;;;18.27;8.32;;;4.50;87.10;;;;;;5077917;28;20024;-75
2023/01/24 05:37:50;;;;;;;18.52;7.50;;;4.50;87.20;;;;;;5061112;28;20043;-74
2023/01/24 05:40:17;;;;;;;18.25;8.38;;;4.50;87.20;;;;;;5077912;28;20033;-74
2023/01/24 05:42:42;;;;;;;18.58;8.18;;;4.50;86.90;;;;;;5095500;28;20029;-75
2023/01/24 05:45:10;;;;;;;17.20;7.60;;;4.50;86.80;;;;;;5077708;28;20012;-74
2023/01/24 05:47:35;;;;;;;17.27;7.90;;;4.50;86.60;;;;;;5095283;28;20024;-74
2023/01/24 05:50:01;;;;;;;16.35;6.72;;;4.40;86.80;;;;;;5077767;28;20033;-74
2023/01/24 05:52:27;;;;;;;18.13;7.93;;;4.50;86.80;;;;;;5095234;28;20043;-74
2023/01/24 05:54:53;;;;;;;15.90;6.93;;;4.40;86.80;;;;;;5077667;28;20036;-74
2023/01/24 05:57:18;;;;;;;18.92;8.00;;;4.40;87.10;;;;;;5060760;28;20120;-74
2023/01/24 05:59:44;;;;;;;17.75;7.22;;;4.40;87.40;;;;;;5077587;28;20545;-74
2023/01/24 06:02:10;;;;;;;16.20;7.30;;;4.40;87.40;;;;;;5077507;28;20091;-74
2023/01/24 06:04:36;;;;;;;16.83;8.00;;;4.40;87.20;;;;;;5077328;28;20028;-74
2023/01/24 06:07:02;;;;;;;16.08;7.45;;;4.40;87.40;;;;;;5060661;28;20021;-74
2023/01/24 06:09:27;;;;;;;17.45;7.20;;;4.40;87.40;;;;;;5060492;28;20027;-74
2023/01/24 06:11:53;;;;;;;20.20;8.07;;;4.40;87.10;;;;;;5077077;28;20032;-74
2023/01/24 06:14:19;;;;;;;16.60;7.53;;;4.40;87.10;;;;;;5094822;28;20036;-75
2023/01/24 06:16:47;;;;;;;18.35;8.02;;;4.30;87.30;;;;;;5060323;28;20032;-74
2023/01/24 06:19:14;;;;;;;17.27;7.90;;;4.30;87.40;;;;;;5076997;28;20038;-74
2023/01/24 06:21:51;;;;;;;18.10;8.07;;;4.30;87.40;;;;;;5094684;28;20032;-74
2023/01/24 06:24:22;;;;;;;19.80;8.45;;;4.40;87.50;;;;;;5094209;28;20021;-74
2023/01/24 06:26:49;;;;;;;17.10;8.18;;;4.40;87.30;;;;;;5094606;28;20024;-74
2023/01/24 06:29:16;;;;;;;16.58;7.55;;;4.40;87.40;;;;;;5077186;28;20025;-74
2023/01/24 06:32:29;;;;;;;18.52;8.55;;;4.30;87.10;;;;;;5094429;28;20049;-74
2023/01/24 06:35:00;;;;;;;;;;;4.30;87.20;;;;;;5094861;28;20032;-74
2023/01/24 06:37:41;;;;;;;15.23;6.97;;;4.30;87.10;;;;;;5076568;28;19924;-75
2023/01/24 06:40:11;;;;;;;17.58;7.38;;;4.30;87.40;;;;;;5094337;28;20088;-73
2023/01/24 06:42:37;;;;;;;19.83;7.90;;;4.30;87.50;;;;;;5094205;28;20020;-74
2023/01/24 06:45:05;;;;;;;18.95;8.13;;;4.30;87.30;;;;;;5059947;28;20025;-74
2023/01/24 06:47:30;;;;;;;19.95;8.05;;;4.30;87.30;;;;;;5076749;28;20107;-74
2023/01/24 06:49:56;;;;;;;19.40;8.38;;;4.30;87.50;;;;;;5076522;28;20040;-74
2023/01/24 06:52:21;;;;;;;18.67;8.13;;;4.30;87.60;;;;;;5059692;28;20092;-74
2023/01/24 06:54:47;;;;;;;21.90;8.60;;;4.30;87.90;;;;;;5059695;28;20056;-74
2023/01/24 06:57:13;;;;;;;16.35;7.88;;;4.30;87.60;;;;;;5043139;28;20079;-74
2023/01/24 06:59:39;;;;;;;20.38;8.88;;;4.40;87.80;;;;;;5093901;28;20021;-74
2023/01/24 07:02:05;;;;;;;18.38;8.45;;;4.30;87.50;;;;;;5059622;28;20448;-74
2023/01/24 07:04:30;;;;;;;17.55;7.95;;;4.30;87.60;;;;;;5076073;28;20050;-74
2023/01/24 07:06:57;;;;;;;21.33;8.43;;;4.30;87.60;;;;;;5076060;28;20052;-74
2023/01/24 07:09:23;;;;;;;20.17;7.82;;;4.30;87.70;;;;;;5075986;28;20035;-74
2023/01/24 07:11:52;;;;;;;19.65;7.40;;;4.30;87.60;;;;;;5059331;28;20473;-74
2023/01/24 07:14:18;;;;;;;18.83;7.80;;;4.30;87.20;;;;;;5075960;28;20025;-74
2023/01/24 07:16:44;;;;;;;20.45;8.50;;;4.20;87.20;;;;;;5075799;28;20035;-74
2023/01/24 07:19:26;;;;;;;20.60;8.60;;;4.20;87.10;;;;;;5075927;28;20021;-74
2023/01/24 07:21:53;;;;;;;21.05;10.23;;;4.30;86.80;;;;;;5093607;28;20051;-74
2023/01/24 07:24:29;;;;;;;19.70;8.20;;;4.20;87.60;;;;;;5075998;28;20024;-74
2023/01/24 07:26:56;;;;;;;23.35;9.00;;;4.20;86.90;;;;;;5075837;28;20029;-74
2023/01/24 07:29:22;;;;;;;21.83;9.75;;;4.20;87.10;;;;;;5059094;28;20029;-74
2023/01/24 07:31:49;;;;;;;17.30;8.02;;;4.10;87.30;;;;;;5043670;28;20057;-74
2023/01/24 07:34:16;;;;;;;16.98;8.43;;;4.20;87.60;;;;;;5053341;28;20041;-74
2023/01/24 07:36:42;;;;;;;22.40;8.80;;;4.20;87.50;;;;;;5052375;28;20076;-74
2023/01/24 07:39:08;;;;;;;21.23;8.48;;;4.20;87.70;;;;;;5052368;28;20041;-74
2023/01/24 07:41:35;;;;;;;22.02;9.13;;;4.20;87.40;;;;;;5035815;28;20026;-74
2023/01/24 07:44:04;;;;;;;21.50;8.93;;;4.20;87.30;;;;;;5052306;28;20502;-74
2023/01/24 07:46:31;;;;;;;20.42;8.10;;;4.10;87.40;;;;;;5052228;28;20053;-74
2023/01/24 07:48:57;;;;;;;19.42;8.15;;;4.00;87.80;;;;;;5052173;28;20037;-74
2023/01/24 07:51:22;;;;;;;22.67;8.30;;;4.00;87.80;;;;;;5053169;28;20044;-74
2023/01/24 07:53:48;;;;;;;19.40;7.30;;;4.10;87.80;;;;;;5052227;28;20048;-74
2023/01/24 07:56:15;;;;;;;23.63;8.43;;;4.10;87.70;;;;;;5052076;28;20541;-74
2023/01/24 07:58:40;;;;;;;21.63;8.52;;;4.10;87.70;;;;;;5052202;28;20041;-74
2023/01/24 08:01:06;;;;;;;18.77;7.90;;;4.10;87.60;;;;;;5052089;28;20056;-74
2023/01/24 08:03:32;;;;;;;20.58;8.88;;;4.10;87.40;;;;;;5052066;28;20017;-74
2023/01/24 08:05:57;;;;;;;21.80;8.07;;;4.10;87.30;;;;;;5035631;28;20033;-74
2023/01/24 08:08:23;;;;;;;18.95;8.10;;;4.10;87.60;;;;;;5052018;28;20036;-74
2023/01/24 08:10:49;;;;;;;23.33;8.68;;;4.10;87.30;;;;;;5053005;28;20026;-74
2023/01/24 08:13:14;;;;;;;23.40;9.52;;;4.10;87.30;;;;;;5052022;28;20072;-74
2023/01/24 08:15:40;;;;;;;21.05;8.30;;;4.10;87.60;;;;;;5052025;28;20089;-74
2023/01/24 08:18:06;;;;;;;22.48;8.60;;;4.10;87.60;;;;;;5051926;28;20085;-74
2023/01/24 08:20:31;;;;;;;17.83;7.90;;;4.20;87.30;;;;;;5051996;28;20079;-74
2023/01/24 08:22:57;;;;;;;21.77;8.55;;;4.20;87.40;;;;;;5052937;28;20021;-74
2023/01/24 08:25:23;;;;;;;25.58;9.00;;;4.20;87.80;;;;;;5052874;28;20050;-74
2023/01/24 08:27:49;;;;;;;21.98;8.20;;;4.20;87.90;;;;;;5052838;28;20036;-74
2023/01/24 08:30:15;;;;;;;24.70;8.88;;;4.20;87.50;;;;;;5051967;28;20030;-74
2023/01/24 08:32:41;;;;;;;22.45;8.57;;;4.10;87.80;;;;;;5052258;28;20041;-74
2023/01/24 08:35:07;;;;;;;19.83;8.18;;;4.20;87.80;;;;;;5071758;28;20044;-74
2023/01/24 08:37:33;;;;;;;22.38;9.40;;;4.20;87.80;;;;;;5071659;28;20036;-73
2023/01/24 08:39:59;;;;;;;23.48;9.55;;;4.20;87.70;;;;;;5071758;28;20033;-74
2023/01/24 08:42:24;;;;;;;20.88;7.68;;;4.20;87.60;;;;;;5072677;28;20021;-74
2023/01/24 08:44:51;;;;;;;17.33;7.43;;;4.20;87.10;;;;;;5071711;28;20029;-74
2023/01/24 08:47:17;;;;;;;19.88;8.20;;;4.20;87.20;;;;;;5075808;28;20135;-74
2023/01/24 08:49:43;;;;;;;23.23;8.05;;;4.20;87.50;;;;;;5075398;28;20029;-74
2023/01/24 08:52:09;;;;;;;21.83;7.88;;;4.20;87.80;;;;;;5075264;28;20028;-74
2023/01/24 08:54:35;;;;;;;19.00;7.82;;;4.20;86.90;;;;;;5058724;28;20025;-74
2023/01/24 08:57:02;;;;;;;19.55;7.85;;;4.20;87.10;;;;;;5076154;28;20039;-74
2023/01/24 08:59:28;;;;;;;18.98;7.60;;;4.20;87.40;;;;;;5075196;28;20028;-74
2023/01/24 09:01:54;;;;;;;18.92;7.88;;;4.20;87.40;;;;;;5058500;28;20029;-74
2023/01/24 09:04:20;;;;;;;21.02;7.28;;;4.20;87.50;;;;;;5075153;28;20089;-74
2023/01/24 09:06:46;;;;;;;17.75;7.68;;;4.20;87.30;;;;;;5075092;28;20024;-74
2023/01/24 09:09:12;;;;;;;19.15;8.15;;;4.20;87.30;;;;;;5058249;28;20025;-74
2023/01/24 09:11:37;;;;;;;16.38;7.60;;;4.20;87.40;;;;;;5075019;28;20032;-74
2023/01/24 09:14:03;;;;;;;20.33;8.15;;;4.20;87.40;;;;;;5075923;28;20029;-74
2023/01/24 09:16:29;;;;;;;16.35;7.10;;;4.20;87.30;;;;;;5074733;28;20036;-74
2023/01/24 09:18:55;;;;;;;20.60;7.85;;;4.20;86.80;;;;;;5074823;28;20088;-74
2023/01/24 09:21:21;;;;;;;19.80;7.97;;;4.20;87.10;;;;;;5058233;28;20493;-74
2023/01/24 09:23:47;;;;;;;15.20;5.90;;;4.20;86.60;;;;;;5058082;28;20040;-73
2023/01/24 09:26:13;;;;;;;18.45;6.93;;;4.20;86.40;;;;;;5058018;28;20029;-74
2023/01/24 09:28:39;;;;;;;19.02;7.63;;;4.20;86.70;;;;;;5074635;28;20025;-74
2023/01/24 09:31:08;;;;;;;14.10;6.28;;;4.20;86.70;;;;;;5079539;28;20062;-74
2023/01/24 09:33:33;;;;;;;16.88;7.00;;;4.20;87.00;;;;;;5078102;28;20029;-74
2023/01/24 09:36:01;;;;;;;18.20;7.55;;;4.30;87.20;;;;;;5077970;28;20029;-74
2023/01/24 09:38:29;;;;;;;17.42;6.80;;;4.30;87.20;;;;;;5095512;28;20016;-74
2023/01/24 09:41:07;;;;;;;19.10;7.25;;;4.30;86.50;;;;;;5095515;28;20021;-74
2023/01/24 09:43:45;;;;;;;15.35;7.15;;;4.40;86.70;;;;;;5095434;28;20036;-74
2023/01/24 09:46:25;;;;;;;15.70;7.05;;;4.30;86.70;;;;;;5095582;28;20024;-74
2023/01/24 09:49:08;;;;;;;17.52;6.68;;;4.30;86.70;;;;;;5095358;28;20028;-73
2023/01/24 09:51:37;;;;;;;16.88;7.10;;;4.30;86.60;;;;;;5095520;28;20028;-74
2023/01/24 09:54:05;;;;;;;15.50;6.57;;;4.30;86.30;;;;;;5077517;28;20021;-73
2023/01/24 09:56:40;;;;;;;20.02;7.85;;;4.30;86.00;;;;;;5077450;28;20055;-74
2023/01/24 09:59:16;;;;;;;17.15;6.85;;;4.30;85.80;;;;;;5076706;28;20016;-73
2023/01/24 10:01:42;;;;;;;18.55;7.75;;;4.30;85.90;;;;;;5095204;28;20027;-74
2023/01/24 10:04:21;;;;;;;15.73;6.85;;;4.30;86.20;;;;;;5060728;28;20017;-74
2023/01/24 10:07:04;;;;;;;20.00;8.05;;;4.40;86.20;;;;;;5095189;28;20032;-74
2023/01/24 10:09:38;;;;;;;;;;;4.40;86.50;;;;;;5095340;28;20025;-74
2023/01/24 10:12:42;;;;;;;18.48;6.88;;;4.40;86.40;;;;;;5094951;28;19904;-74
2023/01/24 10:15:10;;;;;;;13.82;6.47;;;4.30;86.30;;;;;;5072227;28;20044;-74
2023/01/24 10:17:42;;;;;;;20.65;6.75;;;4.20;86.30;;;;;;5076984;28;20473;-73
2023/01/24 10:20:34;;;;;;;20.00;7.05;;;4.30;86.70;;;;;;5094945;28;20021;-74
2023/01/24 10:23:52;;;;;;;14.82;6.13;;;4.30;86.70;;;;;;5094840;28;20032;-74
2023/01/24 10:26:22;;;;;;;15.60;6.70;;;4.40;86.70;;;;;;4977515;28;20054;-74
2023/01/24 10:28:54;;;;;;;16.45;6.50;;;4.30;86.10;;;;;;5077272;28;20040;-74
2023/01/24 10:31:30;;;;;;;15.00;6.90;;;4.30;85.90;;;;;;5076683;28;20506;-73
2023/01/24 10:34:08;;;;;;;15.05;6.65;;;4.30;86.10;;;;;;5094392;28;20048;-74
2023/01/24 10:36:45;;;;;;;17.88;6.80;;;4.30;86.30;;;;;;5094396;28;20056;-74
2023/01/24 10:39:12;;;;;;;20.42;7.75;;;4.30;85.90;;;;;;5094378;28;20020;-73
2023/01/24 10:41:38;;;;;;;15.55;7.13;;;4.30;86.70;;;;;;5076728;28;20078;-74
2023/01/24 10:44:13;;;;;;;18.83;6.97;;;4.30;85.40;;;;;;5094216;28;20021;-74
2023/01/24 10:47:05;;;;;;;19.30;7.72;;;4.30;85.00;;;;;;5094177;28;20031;-74
2023/01/24 10:49:39;;;;;;;16.73;6.70;;;4.40;84.10;;;;;;5094210;28;20021;-73
2023/01/24 10:52:10;;;;;;;16.10;6.95;;;4.30;84.40;;;;;;5076460;28;20032;-75
2023/01/24 10:54:46;;;;;;;12.35;5.43;;;4.20;84.80;;;;;;5076417;28;20032;-74
2023/01/24 10:57:39;;;;;;;12.85;6.05;;;4.20;84.90;;;;;;5094046;28;20029;-74
2023/01/24 11:00:05;;;;;;;;;;;4.20;85.30;;;;;;5076641;28;20039;-73
2023/01/24 11:02:35;;;;;;;15.38;6.32;;;4.20;85.30;;;;;;5093890;28;19905;-73
2023/01/24 11:05:05;;;;;;;12.20;5.25;;;4.20;85.20;;;;;;5093874;28;20051;-73
2023/01/24 11:07:38;;;;;;;14.98;6.35;;;4.20;85.60;;;;;;5076138;28;20050;-73
2023/01/24 11:10:14;;;;;;;12.35;6.00;;;4.20;85.90;;;;;;5093501;28;20055;-73
2023/01/24 11:12:51;;;;;;;18.40;7.38;;;4.30;85.90;;;;;;5076052;28;20393;-73
2023/01/24 11:15:30;;;;;;;16.45;6.95;;;4.30;85.60;;;;;;5093706;28;20050;-73
2023/01/24 11:18:07;;;;;;;11.18;5.63;;;4.30;85.30;;;;;;5076145;28;20031;-73
2023/01/24 11:20:34;;;;;;;13.90;6.22;;;4.30;85.40;;;;;;5076073;28;20035;-73
2023/01/24 11:23:04;;;;;;;13.60;6.15;;;4.30;85.10;;;;;;5075847;28;20016;-73
2023/01/24 11:25:30;;;;;;;14.10;6.05;;;4.40;85.30;;;;;;5093521;28;20024;-73
2023/01/24 11:27:56;;;;;;;15.32;6.85;;;4.40;84.90;;;;;;5076012;28;20032;-74
2023/01/24 11:30:22;;;;;;;14.90;6.13;;;4.30;84.90;;;;;;5093454;28;20028;-73
2023/01/24 11:33:06;;;;;;;15.60;6.25;;;4.40;85.30;;;;;;5075392;28;20078;-74
2023/01/24 11:35:53;;;;;;;14.10;6.70;;;4.40;85.20;;;;;;5075879;28;20043;-73
2023/01/24 11:38:27;;;;;;;13.85;6.25;;;4.40;84.90;;;;;;5075805;28;20024;-74
2023/01/24 11:41:04;;;;;;;14.57;6.95;;;4.40;84.60;;;;;;5093406;28;20032;-73
2023/01/24 11:43:52;;;;;;;15.65;6.20;;;4.40;84.80;;;;;;5093358;28;20025;-73
2023/01/24 11:46:29;;;;;;;14.00;6.03;;;4.40;85.00;;;;;;5093354;28;20052;-73
2023/01/24 11:49:00;;;;;;;14.38;6.05;;;4.50;84.90;;;;;;5075506;28;20033;-73
2023/01/24 11:51:35;;;;;;;14.25;6.07;;;4.50;84.80;;;;;;5075547;28;20032;-73
2023/01/24 11:54:21;;;;;;;13.20;5.95;;;4.50;85.00;;;;;;5075524;28;20032;-73
2023/01/24 11:57:32;;;;;;;14.95;6.80;;;4.40;84.90;;;;;;5074731;28;20098;-73
2023/01/24 12:00:28;;;;;;;17.55;6.85;;;4.40;84.70;;;;;;4992321;28;20026;-73
2023/01/24 12:03:18;;;;;;;17.60;6.85;;;4.40;84.60;;;;;;4976247;28;20054;-73
2023/01/24 12:06:04;;;;;;;14.48;5.78;;;4.40;84.90;;;;;;5064122;28;20036;-73
2023/01/24 12:08:43;;;;;;;13.35;5.93;;;4.40;84.60;;;;;;5075308;28;20024;-74
2023/01/24 12:11:25;;;;;;;15.23;7.18;;;4.40;85.00;;;;;;5093080;28;20075;-74
2023/01/24 12:14:28;;;;;;;12.40;5.95;;;4.40;85.00;;;;;;5093101;28;20036;-74
2023/01/24 12:16:58;;;;;;;14.68;6.63;;;4.40;84.60;;;;;;5092786;28;20047;-73
2023/01/24 12:19:52;;;;;;;16.02;6.75;;;4.40;84.40;;;;;;5075200;28;20028;-74
2023/01/24 12:22:23;;;;;;;15.82;6.43;;;4.40;84.20;;;;;;5078550;28;20107;-74
2023/01/24 12:25:13;;;;;;;15.73;6.30;;;4.40;84.30;;;;;;5079401;28;20025;-74
2023/01/24 12:27:42;;;;;;;14.02;5.88;;;4.40;84.40;;;;;;5096924;28;20021;-74
2023/01/24 12:30:20;;;;;;;14.07;5.95;;;4.40;84.60;;;;;;5096862;28;20031;-73
2023/01/24 12:33:12;;;;;;;16.35;6.63;;;4.40;84.80;;;;;;5096689;28;20055;-74
2023/01/24 12:35:47;;;;;;;15.83;6.37;;;4.50;85.00;;;;;;5078985;28;20024;-74
2023/01/24 12:38:35;;;;;;;14.10;5.50;;;4.40;84.30;;;;;;5096728;28;20025;-74
2023/01/24 12:41:20;;;;;;;15.50;6.68;;;4.40;84.60;;;;;;5096624;28;20080;-74
2023/01/24 12:43:55;;;;;;;16.05;6.30;;;4.40;84.50;;;;;;5096628;28;20042;-74
2023/01/24 12:46:32;;;;;;;14.60;6.07;;;4.40;84.90;;;;;;5096564;28;20060;-74
2023/01/24 12:49:37;;;;;;;16.48;6.70;;;4.50;84.60;;;;;;5096649;28;20070;-74
2023/01/24 12:52:24;;;;;;;16.92;6.28;;;4.50;84.70;;;;;;4995585;28;20066;-74
2023/01/24 12:54:53;;;;;;;17.20;6.55;;;4.50;84.60;;;;;;5090544;28;20040;-74
2023/01/24 12:58:09;;;;;;;14.73;6.68;;;4.50;84.70;;;;;;5078516;28;20032;-73
2023/01/24 13:00:55;;;;;;;15.27;5.85;;;4.60;84.60;;;;;;5053874;28;20036;-74
2023/01/24 13:03:36;;;;;;;14.82;6.90;;;4.60;84.50;;;;;;5096385;28;20052;-73
2023/01/24 13:06:17;;;;;;;14.43;6.20;;;4.60;84.30;;;;;;5096376;28;20016;-74
2023/01/24 13:09:14;;;;;;;14.85;6.75;;;4.50;84.10;;;;;;5078407;28;20259;-73
2023/01/24 13:11:46;;;;;;;14.00;6.00;;;4.60;84.50;;;;;;5077413;28;20127;-73
2023/01/24 13:14:14;;;;;;;14.20;6.60;;;4.50;84.40;;;;;;5078341;28;20085;-73
2023/01/24 13:17:04;;;;;;;14.05;6.03;;;4.50;84.70;;;;;;5078177;28;20029;-73
2023/01/24 13:19:35;;;;;;;15.43;6.88;;;4.50;84.70;;;;;;5078234;28;20047;-74
2023/01/24 13:22:41;;;;;;;15.13;6.50;;;4.40;84.60;;;;;;5095878;28;20028;-73
2023/01/24 13:25:31;;;;;;;13.68;6.13;;;4.50;84.70;;;;;;5078398;28;20107;-73
2023/01/24 13:28:16;;;;;;;17.17;6.40;;;4.50;84.50;;;;;;5095954;28;20044;-73
2023/01/24 13:30:47;;;;;;;14.27;6.63;;;4.50;84.60;;;;;;5095890;28;20035;-73
2023/01/24 13:33:32;;;;;;;18.90;6.53;;;4.60;84.50;;;;;;5077703;28;20055;-74
2023/01/24 13:36:04;;;;;;;16.42;6.35;;;4.60;84.30;;;;;;5095596;28;20047;-73
2023/01/24 13:38:42;;;;;;;14.50;6.57;;;4.60;84.00;;;;;;5095579;28;20028;-74
2023/01/24 13:41:15;;;;;;;15.68;6.47;;;4.60;84.50;;;;;;5095596;28;20031;-74
2023/01/24 13:43:47;;;;;;;14.40;6.35;;;4.60;84.50;;;;;;5095580;28;20027;-74